createdAt,value
2023-03-25T00:00:24.616Z,93.20
2023-03-25T00:01:00.274Z,93.00
2023-03-25T00:01:32.922Z,92.90
2023-03-25T00:02:05.593Z,93.00
2023-03-25T00:02:37.899Z,93.00
2023-03-25T00:03:43.356Z,92.70
2023-03-25T00:04:17.616Z,93.10
2023-03-25T00:04:53.751Z,93.50
2023-03-25T00:05:26.466Z,92.90
2023-03-25T00:05:58.268Z,92.90
2023-03-25T00:06:34.207Z,92.90
2023-03-25T00:07:06.272Z,93.00
2023-03-25T00:07:38.352Z,92.80
2023-03-25T00:08:10.737Z,93.30
2023-03-25T00:08:42.620Z,93.00
2023-03-25T00:09:14.422Z,93.00
2023-03-25T00:09:47.824Z,93.00
2023-03-25T00:10:20.314Z,92.90
2023-03-25T00:10:56.941Z,93.80
2023-03-25T00:11:29.025Z,92.90
2023-03-25T00:12:00.864Z,92.70
2023-03-25T00:12:32.569Z,93.50
2023-03-25T00:13:05.851Z,92.90
2023-03-25T00:13:37.610Z,93.10
2023-03-25T00:14:09.686Z,93.20
2023-03-25T00:14:54.057Z,93.50
2023-03-25T00:15:25.850Z,92.80
2023-03-25T00:15:58.362Z,92.90
2023-03-25T00:16:30.398Z,93.50
2023-03-25T00:17:02.185Z,92.90
2023-03-25T00:17:36.706Z,93.00
2023-03-25T00:18:08.795Z,92.70
2023-03-25T00:18:40.601Z,92.90
2023-03-25T00:19:13.739Z,92.60
2023-03-25T00:19:45.479Z,92.90
2023-03-25T00:20:18.293Z,92.60
2023-03-25T00:20:50.902Z,92.80
2023-03-25T00:21:23.357Z,92.90
2023-03-25T00:21:55.703Z,93.40
2023-03-25T00:22:27.600Z,93.00
2023-03-25T00:22:59.419Z,92.90
2023-03-25T00:23:32.365Z,92.90
2023-03-25T00:24:04.247Z,92.80
2023-03-25T00:24:35.992Z,92.90
2023-03-25T00:25:16.463Z,93.10
2023-03-25T00:25:49.750Z,92.60
2023-03-25T00:26:21.799Z,92.80
2023-03-25T00:26:54.287Z,93.10
2023-03-25T00:27:26.029Z,92.80
2023-03-25T00:27:57.819Z,92.70
2023-03-25T00:28:32.663Z,93.10
2023-03-25T00:29:04.463Z,93.00
2023-03-25T00:29:36.185Z,92.90
2023-03-25T00:30:09.246Z,92.70
2023-03-25T00:30:42.539Z,92.50
2023-03-25T00:31:15.585Z,92.70
2023-03-25T00:31:47.601Z,92.80
2023-03-25T00:32:20.924Z,92.80
2023-03-25T00:32:52.954Z,92.70
2023-03-25T00:33:25.079Z,92.70
2023-03-25T00:33:57.994Z,93.00
2023-03-25T00:34:29.775Z,93.20
2023-03-25T00:35:01.508Z,93.10
2023-03-25T00:35:33.271Z,92.70
2023-03-25T00:36:05.753Z,93.00
2023-03-25T00:36:37.687Z,92.70
2023-03-25T00:37:09.811Z,92.70
2023-03-25T00:37:43.478Z,93.20
2023-03-25T00:38:15.411Z,92.80
2023-03-25T00:38:49.137Z,93.00
2023-03-25T00:39:21.052Z,92.70
2023-03-25T00:39:52.866Z,92.70
2023-03-25T00:40:25.887Z,92.70
2023-03-25T00:41:29.924Z,92.50
2023-03-25T00:42:02.471Z,92.50
2023-03-25T00:42:34.947Z,92.80
2023-03-25T00:43:07.397Z,92.80
2023-03-25T00:43:39.642Z,93.40
2023-03-25T00:44:17.080Z,93.30
2023-03-25T00:44:49.142Z,93.30
2023-03-25T00:45:21.013Z,92.80
2023-03-25T00:45:56.421Z,93.50
2023-03-25T00:46:31.547Z,92.80
2023-03-25T00:47:03.445Z,93.00
2023-03-25T00:47:35.353Z,92.80
2023-03-25T00:48:07.184Z,92.50
2023-03-25T00:48:39.247Z,92.80
2023-03-25T00:49:12.153Z,92.70
2023-03-25T00:49:44.324Z,92.80
2023-03-25T00:50:16.225Z,93.20
2023-03-25T00:50:48.789Z,92.80
2023-03-25T00:51:22.038Z,92.60
2023-03-25T00:51:54.419Z,93.30
2023-03-25T00:52:26.219Z,93.70
2023-03-25T00:52:58.181Z,92.70
2023-03-25T00:53:29.932Z,92.60
2023-03-25T00:54:02.050Z,92.60
2023-03-25T00:54:34.282Z,92.80
2023-03-25T00:55:07.602Z,92.80
2023-03-25T00:56:12.300Z,92.50
2023-03-25T00:56:44.622Z,93.20
2023-03-25T00:57:17.578Z,92.80
2023-03-25T00:57:49.499Z,92.80
2023-03-25T00:58:21.257Z,92.70
2023-03-25T00:58:53.147Z,92.40
2023-03-25T00:59:24.917Z,93.10
2023-03-25T00:59:56.816Z,92.40
2023-03-25T01:00:28.649Z,93.30
2023-03-25T01:01:00.831Z,92.40
2023-03-25T01:01:33.190Z,91.70
2023-03-25T01:02:06.799Z,92.70
2023-03-25T01:02:41.855Z,92.50
2023-03-25T01:03:13.890Z,92.80
2023-03-25T01:03:45.740Z,92.50
2023-03-25T01:04:19.477Z,92.40
2023-03-25T01:04:51.932Z,92.70
2023-03-25T01:05:24.120Z,92.50
2023-03-25T01:05:57.846Z,92.50
2023-03-25T01:06:34.751Z,93.20
2023-03-25T01:07:06.562Z,92.40
2023-03-25T01:07:39.970Z,92.60
2023-03-25T01:08:14.766Z,92.40
2023-03-25T01:08:47.142Z,92.40
2023-03-25T01:09:20.722Z,92.60
2023-03-25T01:09:52.468Z,92.40
2023-03-25T01:10:24.577Z,93.50
2023-03-25T01:10:57.094Z,92.40
2023-03-25T01:11:34.676Z,92.30
2023-03-25T01:12:06.515Z,92.90
2023-03-25T01:12:38.820Z,92.40
2023-03-25T01:13:10.745Z,92.40
2023-03-25T01:13:42.505Z,92.40
2023-03-25T01:14:18.033Z,92.70
2023-03-25T01:15:22.051Z,92.40
2023-03-25T01:15:54.251Z,92.40
2023-03-25T01:16:27.537Z,93.20
2023-03-25T01:17:00.494Z,92.50
2023-03-25T01:17:35.007Z,93.10
2023-03-25T01:18:07.775Z,92.40
2023-03-25T01:18:41.216Z,92.40
2023-03-25T01:19:14.692Z,92.40
2023-03-25T01:19:46.623Z,92.40
2023-03-25T01:20:18.953Z,92.90
2023-03-25T01:20:52.000Z,92.50
2023-03-25T01:21:24.267Z,93.50
2023-03-25T01:21:56.160Z,92.50
2023-03-25T01:22:28.112Z,93.60
2023-03-25T01:22:59.837Z,92.40
2023-03-25T01:23:31.923Z,93.60
2023-03-25T01:24:04.890Z,92.70
2023-03-25T01:24:36.706Z,92.70
2023-03-25T01:25:08.739Z,92.50
2023-03-25T01:25:40.462Z,92.50
2023-03-25T01:26:13.263Z,92.50
2023-03-25T01:26:45.965Z,92.80
2023-03-25T01:27:17.911Z,92.80
2023-03-25T01:27:49.674Z,92.60
2023-03-25T01:28:21.376Z,93.00
2023-03-25T01:28:54.024Z,92.50
2023-03-25T01:29:25.812Z,92.50
2023-03-25T01:29:58.144Z,92.70
2023-03-25T01:30:29.903Z,92.50
2023-03-25T01:31:04.037Z,92.70
2023-03-25T01:31:36.021Z,92.70
2023-03-25T01:32:08.744Z,93.00
2023-03-25T01:32:40.755Z,92.80
2023-03-25T01:33:12.544Z,93.60
2023-03-25T01:33:44.415Z,92.80
2023-03-25T01:34:17.108Z,92.70
2023-03-25T01:34:48.876Z,92.70
2023-03-25T01:35:20.681Z,92.60
2023-03-25T01:35:52.655Z,92.50
2023-03-25T01:36:25.705Z,92.40
2023-03-25T01:37:34.043Z,92.40
2023-03-25T01:38:05.955Z,92.50
2023-03-25T01:38:38.153Z,92.40
2023-03-25T01:39:10.753Z,92.70
2023-03-25T01:39:42.493Z,92.40
2023-03-25T01:40:23.760Z,92.50
2023-03-25T01:40:56.029Z,92.70
2023-03-25T01:41:39.086Z,92.40
2023-03-25T01:42:18.613Z,92.60
2023-03-25T01:42:50.596Z,92.50
2023-03-25T01:43:23.543Z,92.50
2023-03-25T01:44:33.598Z,92.50
2023-03-25T01:45:21.625Z,92.60
2023-03-25T01:45:53.516Z,92.60
2023-03-25T01:46:25.894Z,92.90
2023-03-25T01:47:03.743Z,92.50
2023-03-25T01:47:35.810Z,92.40
2023-03-25T01:48:23.539Z,92.50
2023-03-25T01:48:56.813Z,92.40
2023-03-25T01:49:38.812Z,92.40
2023-03-25T01:50:14.993Z,92.40
2023-03-25T01:51:05.123Z,92.40
2023-03-25T01:51:40.626Z,92.40
2023-03-25T01:52:16.711Z,92.40
2023-03-25T01:52:52.056Z,92.40
2023-03-25T01:53:27.754Z,92.30
2023-03-25T01:54:00.722Z,92.20
2023-03-25T01:54:33.562Z,92.70
2023-03-25T01:55:06.028Z,92.40
2023-03-25T01:55:40.064Z,92.40
2023-03-25T01:56:17.355Z,92.40
2023-03-25T01:56:52.041Z,93.20
2023-03-25T01:57:25.785Z,92.40
2023-03-25T01:58:33.308Z,92.30
2023-03-25T01:59:39.791Z,92.30
2023-03-25T02:00:15.624Z,92.30
2023-03-25T02:01:26.596Z,92.30
2023-03-25T02:02:02.678Z,92.20
2023-03-25T02:02:40.202Z,92.20
2023-03-25T02:03:13.975Z,92.20
2023-03-25T02:03:46.120Z,92.30
2023-03-25T02:04:39.487Z,92.50
2023-03-25T02:05:21.584Z,92.30
2023-03-25T02:06:05.880Z,92.30
2023-03-25T02:06:57.240Z,92.40
2023-03-25T02:07:32.892Z,92.50
2023-03-25T02:08:09.122Z,92.30
2023-03-25T02:08:41.859Z,92.20
2023-03-25T02:09:17.239Z,92.20
2023-03-25T02:09:49.677Z,92.30
2023-03-25T02:10:22.150Z,92.30
2023-03-25T02:10:55.193Z,92.30
2023-03-25T02:11:29.407Z,92.30
2023-03-25T02:12:01.376Z,92.30
2023-03-25T02:12:33.267Z,92.20
2023-03-25T02:13:07.408Z,92.20
2023-03-25T02:14:17.692Z,92.10
2023-03-25T02:14:49.618Z,92.10
2023-03-25T02:15:21.666Z,92.10
2023-03-25T02:16:08.249Z,92.10
2023-03-25T02:17:09.212Z,92.10
2023-03-25T02:18:01.150Z,92.20
2023-03-25T02:19:42.156Z,92.30
2023-03-25T02:20:34.691Z,92.50
2023-03-25T02:22:11.664Z,92.30
2023-03-25T02:24:04.436Z,92.30
2023-03-25T02:25:01.982Z,92.30
2023-03-25T02:26:25.065Z,92.60
2023-03-25T02:27:14.411Z,92.50
2023-03-25T02:28:01.257Z,92.50
2023-03-25T02:28:52.939Z,92.70
2023-03-25T02:29:49.438Z,92.50
2023-03-25T02:31:00.948Z,92.50
2023-03-25T02:31:51.729Z,92.80
2023-03-25T12:32:38.901Z,90.90
2023-03-25T12:33:32.462Z,91.10
2023-03-25T12:35:14.578Z,91.40
2023-03-25T12:36:24.847Z,91.40
2023-03-25T12:37:14.817Z,91.60
2023-03-25T12:39:14.927Z,91.70
2023-03-25T12:39:58.816Z,91.80
2023-03-25T12:40:36.676Z,92.10
2023-03-25T12:41:23.089Z,92.10
2023-03-25T12:42:26.890Z,92.20
2023-03-25T12:43:10.766Z,92.10
2023-03-25T12:44:14.234Z,91.90
2023-03-25T12:46:02.332Z,91.80
2023-03-25T12:46:46.186Z,91.90
2023-03-25T12:48:55.062Z,91.60
2023-03-25T12:49:56.012Z,91.70
2023-03-25T12:50:39.195Z,91.80
2023-03-25T12:51:45.594Z,91.90
2023-03-25T12:52:43.370Z,91.70
2023-03-25T12:53:31.671Z,91.70
2023-03-25T12:54:12.164Z,91.80
2023-03-25T12:54:52.880Z,91.50
2023-03-25T12:55:36.624Z,91.60
2023-03-25T12:56:36.850Z,91.60
2023-03-25T12:57:38.032Z,91.30
2023-03-25T12:58:25.325Z,91.30
2023-03-25T13:00:15.979Z,91.40
2023-03-25T13:01:08.510Z,91.50
2023-03-25T13:02:17.786Z,91.70
2023-03-25T13:03:19.290Z,91.90
2023-03-25T13:04:18.619Z,91.40
2023-03-25T13:05:08.357Z,92.00
2023-03-25T13:06:08.568Z,92.20
2023-03-25T13:07:17.770Z,92.30
2023-03-25T13:08:24.256Z,92.30
2023-03-25T13:09:04.560Z,92.30
2023-03-25T13:09:52.210Z,93.20
2023-03-25T13:10:32.523Z,92.10
2023-03-25T13:11:16.750Z,91.50
2023-03-25T13:11:53.152Z,91.90
2023-03-25T13:12:51.447Z,91.90
2023-03-25T13:13:25.701Z,92.00
2023-03-25T13:14:05.502Z,91.70
2023-03-25T13:14:52.773Z,91.70
2023-03-25T13:15:36.086Z,91.60
2023-03-25T13:16:15.082Z,91.90
2023-03-25T13:16:50.965Z,91.70
2023-03-25T13:17:34.781Z,91.90
2023-03-25T13:18:15.814Z,91.80
2023-03-25T13:19:01.698Z,91.80
2023-03-25T13:19:39.254Z,91.60
2023-03-25T13:20:11.404Z,92.10
2023-03-25T13:21:04.883Z,91.80
2023-03-25T13:21:46.376Z,92.00
2023-03-25T13:22:32.019Z,91.80
2023-03-25T13:23:07.769Z,92.00
2023-03-25T13:23:42.276Z,92.10
2023-03-25T13:24:22.292Z,91.60
2023-03-25T13:25:02.239Z,92.50
2023-03-25T13:25:53.166Z,92.20
2023-03-25T13:26:29.423Z,92.00
2023-03-25T13:27:04.523Z,92.10
2023-03-25T13:27:41.615Z,92.20
2023-03-25T13:28:20.142Z,92.40
2023-03-25T13:29:05.465Z,91.70
2023-03-25T13:29:44.382Z,91.90
2023-03-25T13:30:32.661Z,92.20
2023-03-25T13:31:14.588Z,92.20
2023-03-25T13:31:48.647Z,92.30
2023-03-25T13:32:36.652Z,92.40
2023-03-25T13:33:19.049Z,91.90
2023-03-25T13:34:17.283Z,92.10
2023-03-25T13:34:57.303Z,92.20
2023-03-25T13:35:42.895Z,92.30
2023-03-25T13:36:25.983Z,92.30
2023-03-25T13:37:19.755Z,92.50
2023-03-25T13:38:01.163Z,92.30
2023-03-25T13:38:40.459Z,92.00
2023-03-25T13:39:25.295Z,91.90
2023-03-25T13:40:30.266Z,92.40
2023-03-25T13:41:27.962Z,92.10
2023-03-25T13:42:15.600Z,92.20
2023-03-25T13:43:01.881Z,92.00
2023-03-25T13:43:57.045Z,91.80
2023-03-25T13:44:38.156Z,91.50
2023-03-25T13:45:19.880Z,91.20
2023-03-25T13:46:08.231Z,91.40
2023-03-25T13:47:08.805Z,91.40
2023-03-25T13:47:48.670Z,91.50
2023-03-25T13:48:24.095Z,91.40
2023-03-25T13:49:21.235Z,91.30
2023-03-25T13:50:08.400Z,90.80
2023-03-25T13:50:40.395Z,91.10
2023-03-25T13:51:12.131Z,90.80
2023-03-25T13:51:44.078Z,91.10
2023-03-25T13:52:16.745Z,91.40
2023-03-25T13:52:56.746Z,91.30
2023-03-25T13:53:36.055Z,90.90
2023-03-25T13:54:23.026Z,91.00
2023-03-25T13:55:01.869Z,91.10
2023-03-25T13:55:47.005Z,90.70
2023-03-25T13:56:27.554Z,90.60
2023-03-25T13:57:11.280Z,90.60
2023-03-25T13:58:09.097Z,90.70
2023-03-25T13:58:55.996Z,90.80
2023-03-25T13:59:56.823Z,90.60
2023-03-25T14:00:31.570Z,90.80
2023-03-25T14:01:22.081Z,90.90
2023-03-25T14:02:15.002Z,90.90
2023-03-25T14:03:01.801Z,91.00
2023-03-25T14:04:08.201Z,91.10
2023-03-25T14:05:16.859Z,91.00
2023-03-25T14:06:09.742Z,90.90
2023-03-25T14:06:44.602Z,91.30
2023-03-25T14:07:24.865Z,90.90
2023-03-25T14:08:02.605Z,90.80
2023-03-25T14:09:05.580Z,90.70
2023-03-25T14:10:00.529Z,90.50
2023-03-25T14:10:53.340Z,90.30
2023-03-25T14:11:48.352Z,90.00
2023-03-25T14:12:29.949Z,90.30
2023-03-25T14:13:07.201Z,89.90
2023-03-25T14:13:47.152Z,90.10
2023-03-25T14:14:22.696Z,90.10
2023-03-25T14:15:07.844Z,90.20
2023-03-25T14:15:46.367Z,90.20
2023-03-25T14:16:23.190Z,90.60
2023-03-25T14:16:59.623Z,90.20
2023-03-25T14:17:35.626Z,90.80
2023-03-25T14:18:17.719Z,90.70
2023-03-25T14:18:54.740Z,90.80
2023-03-25T14:19:37.392Z,90.90
2023-03-25T14:20:12.440Z,90.20
2023-03-25T14:20:45.085Z,90.50
2023-03-25T14:21:32.668Z,90.10
2023-03-25T14:22:27.146Z,90.40
2023-03-25T14:23:04.825Z,90.30
2023-03-25T14:23:36.664Z,90.70
2023-03-25T14:24:18.160Z,90.40
2023-03-25T14:24:51.470Z,90.10
2023-03-25T14:25:38.908Z,90.30
2023-03-25T14:26:11.016Z,90.40
2023-03-25T14:26:57.801Z,90.40
2023-03-25T14:27:34.511Z,90.10
2023-03-25T14:28:12.253Z,90.00
2023-03-25T14:28:47.654Z,90.10
2023-03-25T14:29:28.482Z,90.60
2023-03-25T14:30:22.552Z,90.50
2023-03-25T14:31:08.119Z,90.50
2023-03-25T14:31:40.050Z,90.70
2023-03-25T14:32:18.318Z,90.20
2023-03-25T14:32:51.845Z,90.80
2023-03-25T14:33:24.420Z,90.60
2023-03-25T14:34:02.370Z,90.40
2023-03-25T14:34:34.211Z,90.40
2023-03-25T14:35:33.983Z,90.80
2023-03-25T14:36:06.325Z,90.40
2023-03-25T14:36:38.602Z,90.30
2023-03-25T14:37:26.020Z,90.50
2023-03-25T14:38:07.484Z,90.40
2023-03-25T14:39:19.269Z,90.60
2023-03-25T14:39:51.858Z,90.00
2023-03-25T14:40:55.446Z,90.50
2023-03-25T14:41:58.641Z,90.20
2023-03-25T14:42:59.322Z,89.70
2023-03-25T14:43:53.043Z,90.00
2023-03-25T14:44:29.121Z,90.10
2023-03-25T14:45:32.265Z,89.50
2023-03-25T14:46:19.176Z,90.40
2023-03-25T14:47:02.228Z,90.60
2023-03-25T14:47:35.640Z,90.60
2023-03-25T14:48:25.822Z,90.30
2023-03-25T14:49:03.989Z,90.40
2023-03-25T14:50:13.602Z,90.90
2023-03-25T14:50:46.369Z,90.70
2023-03-25T14:51:27.397Z,90.20
2023-03-25T14:51:59.484Z,90.30
2023-03-25T14:52:52.777Z,90.20
2023-03-25T14:53:27.322Z,89.60
2023-03-25T14:54:31.647Z,89.30
2023-03-25T14:55:19.378Z,90.10
2023-03-25T14:55:52.008Z,90.30
2023-03-25T14:56:31.605Z,90.60
2023-03-25T14:57:14.703Z,90.70
2023-03-25T14:57:48.256Z,90.30
2023-03-25T14:58:29.027Z,90.60
2023-03-25T14:59:21.166Z,90.30
2023-03-25T15:00:03.731Z,90.60
2023-03-25T15:00:42.677Z,91.20
2023-03-25T15:01:20.077Z,90.60
2023-03-25T15:01:52.962Z,90.10
2023-03-25T15:02:28.830Z,90.50
2023-03-25T15:03:12.498Z,89.60
2023-03-25T15:03:45.637Z,90.00
2023-03-25T15:04:37.720Z,90.40
2023-03-25T15:05:18.427Z,90.50
2023-03-25T15:05:59.513Z,89.90
2023-03-25T15:06:34.737Z,88.50
2023-03-25T15:07:12.818Z,89.60
2023-03-25T15:08:11.653Z,90.30
2023-03-25T15:08:53.887Z,88.90
2023-03-25T15:09:27.533Z,90.10
2023-03-25T15:09:59.421Z,90.00
2023-03-25T15:10:45.033Z,90.40
2023-03-25T15:11:28.300Z,89.20
2023-03-25T15:12:03.580Z,89.30
2023-03-25T15:12:38.861Z,89.50
2023-03-25T15:13:21.714Z,90.10
2023-03-25T15:13:59.613Z,89.80
2023-03-25T15:14:36.512Z,90.20
2023-03-25T15:15:30.390Z,90.10
2023-03-25T15:16:17.968Z,90.10
2023-03-25T15:16:49.787Z,88.40
2023-03-25T15:17:46.341Z,88.90
2023-03-25T15:18:36.218Z,87.70
2023-03-25T15:19:12.184Z,88.90
2023-03-25T15:20:12.009Z,89.00
2023-03-25T15:20:43.865Z,88.00
2023-03-25T15:21:16.546Z,86.40
2023-03-25T15:21:57.426Z,88.20
2023-03-25T15:22:29.271Z,88.30
2023-03-25T15:23:19.109Z,87.30
2023-03-25T15:24:12.401Z,87.70
2023-03-25T15:24:52.820Z,86.70
2023-03-25T15:25:24.758Z,86.90
2023-03-25T15:25:58.454Z,88.20
2023-03-25T15:26:34.634Z,88.20
2023-03-25T15:27:25.108Z,88.10
2023-03-25T15:27:56.861Z,88.00
2023-03-25T15:28:53.031Z,89.30
2023-03-25T15:29:38.439Z,88.40
2023-03-25T15:30:31.368Z,88.80
2023-03-25T15:31:26.185Z,88.00
2023-03-25T15:32:26.120Z,87.90
2023-03-25T15:33:33.688Z,87.60
2023-03-25T15:34:18.462Z,88.60
2023-03-25T15:35:14.572Z,88.40
2023-03-25T15:36:09.276Z,89.50
2023-03-25T15:36:59.644Z,89.50
2023-03-25T15:37:56.386Z,89.50
2023-03-25T15:38:41.516Z,88.90
2023-03-25T15:39:25.046Z,89.30
2023-03-25T15:40:08.821Z,89.80
2023-03-25T15:40:58.768Z,89.50
2023-03-25T15:42:09.557Z,90.00
2023-03-25T15:43:18.977Z,90.10
2023-03-25T15:44:11.511Z,90.00
2023-03-25T15:44:58.104Z,89.80
2023-03-25T15:46:01.572Z,90.20
2023-03-25T15:46:59.551Z,89.60
2023-03-25T15:47:49.059Z,89.90
2023-03-25T15:48:39.647Z,90.50
2023-03-25T15:49:41.212Z,89.60
2023-03-25T15:50:35.522Z,89.30
2023-03-25T15:51:36.431Z,89.30
2023-03-25T15:52:41.849Z,90.00
2023-03-25T15:53:41.733Z,89.20
2023-03-25T15:54:27.960Z,87.80
2023-03-25T15:55:12.522Z,88.30
2023-03-25T15:55:53.608Z,88.70
2023-03-25T15:56:34.254Z,89.30
2023-03-25T15:57:34.902Z,87.80
2023-03-25T15:58:37.383Z,89.30
2023-03-25T15:59:46.049Z,88.60
2023-03-25T16:00:29.596Z,87.10
2023-03-25T16:01:24.885Z,87.70
2023-03-25T16:01:57.748Z,88.70
2023-03-25T16:02:52.077Z,87.90
2023-03-25T16:03:29.414Z,88.20
2023-03-25T16:04:10.489Z,88.20
2023-03-25T16:04:47.239Z,88.10
2023-03-25T16:05:20.598Z,89.00
2023-03-25T16:05:57.081Z,88.80
2023-03-25T16:06:31.583Z,88.70
2023-03-25T16:07:06.973Z,89.40
2023-03-25T16:07:42.224Z,89.60
2023-03-25T16:08:41.314Z,90.00
2023-03-25T16:09:26.022Z,90.50
2023-03-25T16:10:13.107Z,90.10
2023-03-25T16:10:46.411Z,90.20
2023-03-25T16:11:21.102Z,90.30
2023-03-25T16:12:01.937Z,90.30
2023-03-25T16:12:33.814Z,90.20
2023-03-25T16:13:16.506Z,90.50
2023-03-25T16:14:02.228Z,90.20
2023-03-25T16:14:34.076Z,90.70
2023-03-25T16:15:07.194Z,90.60
2023-03-25T16:15:40.943Z,90.70
2023-03-25T16:16:16.706Z,90.80
2023-03-25T16:16:55.033Z,90.90
2023-03-25T16:17:34.250Z,90.50
2023-03-25T16:18:09.690Z,90.70
2023-03-25T16:18:44.873Z,90.90
2023-03-25T16:19:21.831Z,90.90
2023-03-25T16:19:56.346Z,90.90
2023-03-25T16:20:31.876Z,90.80
2023-03-25T16:21:03.940Z,90.90
2023-03-25T16:21:36.413Z,90.80
2023-03-25T16:22:19.950Z,91.00
2023-03-25T16:22:57.513Z,91.00
2023-03-25T16:23:30.695Z,91.20
2023-03-25T16:24:09.091Z,91.10
2023-03-25T16:24:41.321Z,90.90
2023-03-25T16:25:20.973Z,90.90
2023-03-25T16:25:55.212Z,90.90
2023-03-25T16:26:57.428Z,91.00
2023-03-25T16:27:36.913Z,90.90
2023-03-25T16:28:17.625Z,90.90
2023-03-25T16:28:49.357Z,91.10
2023-03-25T16:29:23.671Z,91.20
2023-03-25T16:29:55.722Z,91.20
2023-03-25T16:30:33.460Z,91.30
2023-03-25T16:31:05.818Z,91.20
2023-03-25T16:31:42.713Z,91.10
2023-03-25T16:32:20.136Z,91.50
2023-03-25T16:32:52.518Z,91.10
2023-03-25T16:33:30.416Z,91.70
2023-03-25T16:34:02.219Z,91.30
2023-03-25T16:34:40.812Z,91.50
2023-03-25T16:35:24.838Z,91.10
2023-03-25T16:35:59.432Z,91.00
2023-03-25T16:37:06.163Z,90.90
2023-03-25T16:37:39.869Z,91.10
2023-03-25T16:38:21.586Z,91.30
2023-03-25T16:38:53.471Z,91.10
2023-03-25T16:39:26.178Z,91.00
2023-03-25T16:39:58.461Z,90.90
2023-03-25T16:40:50.262Z,91.10
2023-03-25T16:41:22.240Z,91.10
2023-03-25T16:42:02.296Z,91.10
2023-03-25T16:42:35.395Z,91.30
2023-03-25T16:43:17.084Z,90.90
2023-03-25T16:43:48.963Z,91.20
2023-03-25T16:44:23.790Z,90.90
2023-03-25T16:44:55.890Z,91.00
2023-03-25T16:45:27.756Z,91.00
2023-03-25T16:46:03.343Z,91.00
2023-03-25T16:46:35.594Z,90.90
2023-03-25T16:47:07.623Z,90.90
2023-03-25T16:47:39.584Z,90.70
2023-03-25T16:48:21.860Z,91.00
2023-03-25T16:48:54.760Z,90.90
2023-03-25T16:49:31.806Z,90.80
2023-03-25T16:50:04.759Z,91.10
2023-03-25T16:50:38.056Z,91.00
2023-03-25T16:51:12.818Z,90.90
2023-03-25T16:51:46.420Z,91.20
2023-03-25T16:52:26.446Z,91.10
2023-03-25T16:53:02.730Z,91.20
2023-03-25T16:53:39.847Z,91.20
2023-03-25T16:54:23.317Z,91.10
2023-03-25T16:54:54.980Z,91.10
2023-03-25T16:55:31.458Z,91.10
2023-03-25T16:56:20.225Z,91.50
2023-03-25T16:56:53.286Z,91.30
2023-03-25T16:57:28.006Z,91.70
2023-03-25T16:58:02.022Z,91.70
2023-03-25T16:58:37.527Z,91.60
2023-03-25T16:59:27.438Z,91.40
2023-03-25T17:00:17.199Z,91.50
2023-03-25T17:00:52.396Z,91.50
2023-03-25T17:01:25.324Z,91.60
2023-03-25T17:01:59.835Z,91.90
2023-03-25T17:02:41.751Z,91.50
2023-03-25T17:03:21.199Z,91.60
2023-03-25T17:04:18.940Z,91.60
2023-03-25T17:04:50.971Z,91.50
2023-03-25T17:05:26.519Z,91.70
2023-03-25T17:06:08.744Z,91.60
2023-03-25T17:06:43.198Z,91.50
2023-03-25T17:07:20.936Z,91.70
2023-03-25T17:08:10.471Z,91.60
2023-03-25T17:08:42.841Z,91.40
2023-03-25T17:09:21.476Z,91.60
2023-03-25T17:09:57.399Z,91.50
2023-03-25T17:10:32.548Z,91.20
2023-03-25T17:11:07.649Z,91.40
2023-03-25T17:11:39.553Z,91.40
2023-03-25T17:12:19.148Z,91.80
2023-03-25T17:12:58.348Z,91.70
2023-03-25T17:13:42.392Z,91.50
2023-03-25T17:14:21.692Z,91.50
2023-03-25T17:15:07.001Z,91.90
2023-03-25T17:15:39.837Z,91.50
2023-03-25T17:16:12.932Z,91.60
2023-03-25T17:16:48.287Z,91.80
2023-03-25T17:17:23.121Z,91.70
2023-03-25T17:18:01.162Z,91.70
2023-03-25T17:18:36.552Z,91.30
2023-03-25T17:19:12.981Z,91.80
2023-03-25T17:19:48.240Z,91.70
2023-03-25T17:20:42.537Z,91.70
2023-03-25T17:21:32.867Z,91.50
2023-03-25T17:22:38.491Z,91.40
2023-03-25T17:23:49.390Z,91.30
2023-03-25T17:24:23.919Z,91.50
2023-03-25T17:25:16.163Z,91.70
2023-03-25T17:25:59.208Z,91.60
2023-03-25T17:26:54.143Z,91.30
2023-03-25T17:27:38.590Z,91.80
2023-03-25T17:28:19.798Z,91.80
2023-03-25T17:28:54.658Z,91.60
2023-03-25T17:29:26.566Z,91.60
2023-03-25T17:29:59.755Z,91.70
2023-03-25T17:30:42.443Z,91.50
2023-03-25T17:31:18.600Z,91.50
2023-03-25T17:31:59.130Z,91.40
2023-03-25T17:32:44.731Z,91.40
2023-03-25T17:33:35.662Z,91.40
2023-03-25T17:34:11.991Z,91.40
2023-03-25T17:34:45.475Z,91.40
2023-03-25T17:35:24.081Z,91.50
2023-03-25T17:35:57.255Z,91.40
2023-03-25T17:36:31.595Z,91.30
2023-03-25T17:37:03.919Z,91.50
2023-03-25T17:37:36.430Z,91.10
2023-03-25T17:38:19.503Z,91.30
2023-03-25T17:38:56.054Z,91.60
2023-03-25T17:39:32.077Z,91.70
2023-03-25T17:40:13.184Z,91.70
2023-03-25T17:40:45.095Z,91.30
2023-03-25T17:41:19.368Z,91.10
2023-03-25T17:42:06.818Z,91.30
2023-03-25T17:42:40.921Z,91.20
2023-03-25T17:43:19.836Z,91.40
2023-03-25T17:43:55.636Z,91.20
2023-03-25T17:44:34.935Z,91.40
2023-03-25T17:45:12.310Z,91.20
2023-03-25T17:45:46.591Z,91.20
2023-03-25T17:46:27.972Z,91.40
2023-03-25T17:46:59.918Z,91.30
2023-03-25T17:47:31.694Z,91.10
2023-03-25T17:48:03.497Z,91.20
2023-03-25T17:48:36.635Z,91.00
2023-03-25T17:49:19.899Z,91.20
2023-03-25T17:49:52.595Z,91.10
2023-03-25T17:50:27.451Z,91.10
2023-03-25T17:51:02.446Z,91.00
2023-03-25T17:51:34.158Z,91.30
2023-03-25T17:52:08.223Z,91.20
2023-03-25T17:52:40.044Z,91.30
2023-03-25T17:53:11.735Z,91.40
2023-03-25T17:53:43.553Z,91.20
2023-03-25T17:54:15.686Z,91.20
2023-03-25T17:54:47.430Z,91.20
2023-03-25T17:55:19.249Z,91.40
2023-03-25T17:55:51.926Z,91.10
2023-03-25T17:56:28.453Z,91.40
2023-03-25T17:57:00.619Z,91.10
2023-03-25T17:57:32.373Z,91.20
2023-03-25T17:58:04.669Z,91.20
2023-03-25T17:58:36.466Z,91.40
2023-03-25T17:59:16.448Z,91.10
2023-03-25T17:59:48.277Z,91.10
2023-03-25T18:00:20.693Z,91.20
2023-03-25T18:00:53.103Z,91.10
2023-03-25T18:01:27.060Z,91.20
2023-03-25T18:01:58.937Z,91.10
2023-03-25T18:02:31.023Z,91.10
2023-03-25T18:03:10.416Z,91.20
2023-03-25T18:03:42.246Z,91.10
2023-03-25T18:04:15.477Z,91.50
2023-03-25T18:04:47.729Z,91.10
2023-03-25T18:05:19.540Z,91.30
2023-03-25T18:05:54.081Z,91.20
2023-03-25T18:06:26.473Z,91.10
2023-03-25T18:06:58.215Z,91.10
2023-03-25T18:07:29.974Z,91.00
2023-03-25T18:08:03.266Z,90.90
2023-03-25T18:08:35.083Z,91.20
2023-03-25T18:09:19.429Z,91.10
2023-03-25T18:09:52.165Z,91.30
2023-03-25T18:10:26.000Z,90.90
2023-03-25T18:10:58.843Z,91.50
2023-03-25T18:11:30.957Z,91.20
2023-03-25T18:12:03.200Z,91.40
2023-03-25T18:12:35.204Z,91.20
2023-03-25T18:13:07.251Z,91.60
2023-03-25T18:13:45.533Z,91.20
2023-03-25T18:14:17.355Z,91.20
2023-03-25T18:14:49.857Z,91.30
2023-03-25T18:15:21.674Z,91.20
2023-03-25T18:15:55.270Z,91.20
2023-03-25T18:16:27.200Z,91.20
2023-03-25T18:16:59.128Z,91.40
2023-03-25T18:17:31.082Z,91.00
2023-03-25T18:18:04.505Z,90.90
2023-03-25T18:18:36.500Z,91.00
2023-03-25T18:19:16.188Z,90.90
2023-03-25T18:19:48.014Z,91.00
2023-03-25T18:20:33.960Z,91.20
2023-03-25T18:21:09.590Z,91.10
2023-03-25T18:21:41.596Z,91.20
2023-03-25T18:22:19.635Z,91.20
2023-03-25T18:22:54.673Z,91.10
2023-03-25T18:23:28.309Z,91.50
2023-03-25T18:24:00.140Z,91.30
2023-03-25T18:24:33.753Z,91.40
2023-03-25T18:25:06.150Z,91.10
2023-03-25T18:25:37.939Z,91.10
2023-03-25T18:26:15.305Z,91.30
2023-03-25T18:26:47.622Z,91.50
2023-03-25T18:27:21.072Z,91.40
2023-03-25T18:27:57.469Z,91.30
2023-03-25T18:28:29.369Z,91.50
2023-03-25T18:29:02.160Z,91.30
2023-03-25T18:29:34.072Z,91.30
2023-03-25T18:30:29.480Z,91.10
2023-03-25T18:31:01.327Z,91.30
2023-03-25T18:31:33.068Z,91.30
2023-03-25T18:32:05.078Z,91.40
2023-03-25T18:32:36.841Z,91.30
2023-03-25T18:33:08.758Z,91.50
2023-03-25T18:33:41.281Z,91.30
2023-03-25T18:34:14.549Z,91.20
2023-03-25T18:34:46.671Z,91.30
2023-03-25T18:35:18.774Z,90.80
2023-03-25T18:35:52.539Z,91.20
2023-03-25T18:36:24.490Z,91.20
2023-03-25T18:36:56.418Z,91.20
2023-03-25T18:37:28.109Z,91.30
2023-03-25T18:38:00.230Z,91.20
2023-03-25T18:38:32.011Z,91.20
2023-03-25T18:39:04.469Z,91.50
2023-03-25T18:39:36.187Z,91.20
2023-03-25T18:40:23.329Z,91.20